• Join FlightAware (Why Join?)
  • Login
  • US Flag 
01:58AM EST


 

Airport Tracker/Info


-or-


 

Live Flight TrackerFlight Track Log ✈ VH-CBT ✈ 27-Jun-2013 ✈ YKRY / KGY - YBSU / MCY

Flight Track Log - Related Links

Times and Time Zones

All times are in EDT time to prevent confusion due to time zone crossing. See the VH-CBT flight status page for this flight to view local times or setup timezone preferences in your user account.

Time Position Orientation Groundspeed Altitude Reporting Facility
EDT Latitude Longitude Course Direction KTS MPH feet Rate Location/Type
12:03AM -26.6082 151.9052 48° Northeast 116 133 4,200  Level Aus ATC (RADAR)
12:04AM -26.5831 151.9368 48° Northeast 124 143 5,000 780 Climbing Aus ATC (RADAR)
12:05AM -26.5828 151.9576 89° East 111 128 5,500 900 Climbing Aus ATC (RADAR)
12:05AM -26.5838 151.9826 93° East 125 144 6,100 900 Climbing Aus ATC (RADAR)
12:06AM -26.5842 152.0202 91° East 122 140 7,000 840 Climbing Aus ATC (RADAR)
12:07AM -26.5851 152.0539 92° East 131 151 7,700 840 Climbing Aus ATC (RADAR)
12:08AM -26.5859 152.0938 91° East 143 165 8,500 540 Climbing Aus ATC (RADAR)
12:09AM -26.5880 152.1543 92° East 164 189 8,900 120 Climbing Aus ATC (RADAR)
12:10AM -26.5886 152.2134 91° East 187 215 8,900  Level Aus ATC (RADAR)
12:11AM -26.5892 152.2624 91° East 188 216 8,900  Level Aus ATC (RADAR)
12:12AM -26.5900 152.2962 92° East 185 213 8,900  Level Aus ATC (RADAR)
12:12AM -26.5908 152.3446 91° East 185 213 8,900  Level Aus ATC (RADAR)
12:13AM -26.5916 152.3978 91° East 185 213 8,900  Level Aus ATC (RADAR)
12:14AM -26.5925 152.4411 91° East 185 213 8,900  Level Aus ATC (RADAR)
12:15AM -26.5932 152.4749 91° East 186 214 8,900  Level Aus ATC (RADAR)
12:16AM -26.5943 152.5330 91° East 186 214 8,900  Level Aus ATC (RADAR)
12:17AM -26.5949 152.5816 91° East 187 215 8,900  Level Aus ATC (RADAR)
12:18AM -26.5959 152.6393 91° East 185 213 8,900  Level Aus ATC (RADAR)
12:19AM -26.5892 152.7016 83° East 186 214 8,900 -120 Level Aus ATC (RADAR)
12:19AM -26.5837 152.7498 83° East 185 213 8,700 -720 Descending Aus ATC (RADAR)
12:20AM -26.5793 152.7917 83° East 201 231 7,900 -960 Descending Aus ATC (RADAR)
12:21AM -26.5785 152.8295 89° East 203 234 7,500 -780 Descending Aus ATC (RADAR)
12:21AM -26.5814 152.8634 95° East 187 215 7,000 -1,140 Descending Aus ATC (RADAR)
12:22AM -26.5841 152.9105 94° East 194 223 6,000 -1,140 Descending Aus ATC (RADAR)
12:23AM -26.5865 152.9387 95° East 182 209 5,600 -840 Descending Aus ATC (RADAR)
12:23AM -26.5911 152.9698 99° East 174 200 5,100 -420 Descending Aus ATC (RADAR)
12:24AM -26.5965 153.0068 99° East 158 182 5,100  Level Aus ATC (RADAR)
12:25AM -26.6017 153.0502 98° East 137 158 5,100  Level Aus ATC (RADAR)
12:26AM -26.6031 153.0785 93° East 136 157 5,100  Level Aus ATC (RADAR)
12:26AM -26.6045 153.0999 94° East 137 158 5,100  Level Aus ATC (RADAR)
12:27AM -26.6065 153.1396 93° East 136 157 5,100  Level Aus ATC (RADAR)
12:28AM -26.5775 153.1453 10° North 150 173 5,100  Level Aus ATC (RADAR)
12:29AM -26.5973 153.0975 245° Southwest 162 186 5,100  Level Aus ATC (RADAR)
12:30AM -26.6298 153.0719 215° Southwest 161 185 5,100 -120 Level Aus ATC (RADAR)
12:31AM -26.6205 153.1076 74° East 145 167 4,900 -600 Descending Aus ATC (RADAR)
12:32AM -26.5984 153.1420 54° Northeast 160 184 4,100 -840 Descending Aus ATC (RADAR)
12:33AM -26.5611 153.1621 26° Northeast 175 201 3,400 -660 Descending Aus ATC (RADAR)
12:33AM -26.5593 153.1223 273° West 169 194 3,000 -240 Descending Aus ATC (RADAR)
12:34AM -26.5868 153.0968 220° Southwest 158 182 3,100  Climbing Aus ATC (RADAR)
12:35AM -26.6196 153.0836 200° South 142 163 3,100  Level Aus ATC (RADAR)
12:35AM -26.6362 153.0854 175° South 122 140 3,100  Level Aus ATC (RADAR)
12:36AM -26.6366 153.0614 269° West 130 150 3,100  Level Aus ATC (RADAR)
12:37AM -26.6116 153.0617 North 113 130 3,100  Level Aus ATC (RADAR)
12:37AM -26.5996 153.0872 62° Northeast 125 144 3,100  Level Aus ATC (RADAR)
12:38AM -26.5873 153.1018 47° Northeast 131 151 3,100  Level Aus ATC (RADAR)
12:38AM -26.5755 153.1155 46° Northeast 124 143 3,100 -420 Level Aus ATC (RADAR)
12:39AM -26.5612 153.1346 50° Northeast 135 155 2,700 -660 Descending Aus ATC (RADAR)
12:40AM -26.5378 153.1601 44° Northeast 156 180 2,300 -660 Descending Aus ATC (RADAR)
12:40AM -26.5205 153.1790 44° Northeast 151 174 1,900 -540 Descending Aus ATC (RADAR)
12:41AM -26.4942 153.1584 325° Northwest 148 170 1,600 -240 Descending Aus ATC (RADAR)
12:42AM -26.5331 153.1431 199° South 115 132 1,500 -300 Descending Aus ATC (RADAR)
12:43AM -26.5472 153.1300 220° Southwest 100 115 1,100 -480 Descending Aus ATC (RADAR)
12:43AM -26.5604 153.1179 219° Southwest 105 121 900 -240 Descending Aus ATC (RADAR)
12:44AM -26.5761 153.1019 222° Southwest 103 119 800 -120 Descending Aus ATC (RADAR)
12:45AM -26.5926 153.0927 207° Southwest 127 146 800 600 Level Aus ATC (RADAR)
12:45AM -26.6120 153.0933 178° South 121 139 1,500 600 Climbing Aus ATC (RADAR)
12:46AM -26.6417 153.1013 166° South 121 139 1,700 360 Climbing Aus ATC (RADAR)
12:47AM -26.6446 153.1259 97° East 121 139 2,100 660 Climbing Aus ATC (RADAR)
12:48AM -26.6507 153.1582 102° East 115 132 2,700 600 Climbing Aus ATC (RADAR)
12:48AM -26.6548 153.1812 101° East 126 145 3,000 180 Climbing Aus ATC (RADAR)
12:50AM -26.6482 153.2383 83° East 141 162 3,100  Climbing Aus ATC (RADAR)
12:51AM -26.6196 153.2207 331° Northwest 138 159 3,100  Level Aus ATC (RADAR)
12:51AM -26.5975 153.2041 326° Northwest 163 188 3,100  Level Aus ATC (RADAR)
12:52AM -26.5765 153.1850 321° Northwest 143 165 3,100  Level Aus ATC (RADAR)
12:53AM -26.5791 153.1455 266° West 146 168 3,100  Level Aus ATC (RADAR)
12:54AM -26.5869 153.1027 259° West 152 175 3,100  Level Aus ATC (RADAR)
12:54AM -26.6078 153.0775 227° Southwest 154 177 3,100  Level Aus ATC (RADAR)
12:55AM -26.6423 153.0837 171° South 134 154 3,100  Level Aus ATC (RADAR)
12:56AM -26.6319 153.0447 287° West 166 191 3,100  Level Aus ATC (RADAR)
12:57AM -26.6132 153.0634 42° Northeast 137 158 3,100  Level Aus ATC (RADAR)
12:58AM -26.5934 153.0901 50° Northeast 132 152 3,100  Level Aus ATC (RADAR)
12:58AM -26.5710 153.1141 44° Northeast 134 154 3,100  Level Aus ATC (RADAR)
12:59AM -26.5507 153.1443 53° Northeast 136 157 3,200 -240 Climbing Aus ATC (RADAR)
01:00AM -26.5233 153.1783 48° Northeast 134 154 2,700 -600 Descending Aus ATC (RADAR)
01:01AM -26.5002 153.2036 44° Northeast 157 181 2,200 -600 Descending Aus ATC (RADAR)
01:02AM -26.4791 153.1858 323° Northwest 162 186 1,900 -480 Descending Aus ATC (RADAR)
01:03AM -26.5073 153.1589 220° Southwest 152 175 1,500 -300 Descending Aus ATC (RADAR)
01:04AM -26.5308 153.1431 211° Southwest 111 128 1,400 -180 Descending Aus ATC (RADAR)
01:04AM -26.5523 153.1266 214° Southwest 104 120 1,200 -300 Descending Aus ATC (RADAR)
01:06AM -26.5740 153.1042 223° Southwest 100 115 900 -540 Descending Aus ATC (RADAR)
01:06AM -26.5844 153.0927 225° Southwest 104 120 400 -1,020 Descending Aus ATC (RADAR)
01:08AM -26.6033 153.0911 184° South  Level Estimated